Time;durP1;ratioP1;P1;durP2;ratioP2;P2;SDS_P1;SDS_P2;PMS_P1;PMS_P2;Temp;Humidity;BMP_temperature;BMP_pressure;BME280_temperature;BME280_humidity;BME280_pressure;Samples;Min_cycle;Max_cycle;Signal;HPM_P1;HPM_P2
2022/10/27 00:01:44;;;;;;;10.70;5.00;;;;;;;12.22;100.00;96371.41;4853019;29;20193;-83
2022/10/27 00:04:09;;;;;;;12.17;5.27;;;;;;;12.22;100.00;96374.03;4857673;29;20200;-83
2022/10/27 00:06:36;;;;;;;9.77;5.00;;;;;;;12.18;100.00;96366.47;4859572;29;20227;-83
2022/10/27 00:09:01;;;;;;;11.57;5.40;;;;;;;12.16;100.00;96372.78;4863079;29;20192;-83
2022/10/27 00:11:27;;;;;;;12.83;5.67;;;;;;;12.18;100.00;96369.06;4865259;29;20200;-83
2022/10/27 00:13:52;;;;;;;8.97;5.37;;;;;;;12.19;100.00;96369.88;4856446;29;20200;-83
2022/10/27 00:16:17;;;;;;;13.10;4.90;;;;;;;12.17;100.00;96375.22;4853975;29;20196;-84
2022/10/27 00:18:44;;;;;;;10.87;5.30;;;;;;;12.17;100.00;96367.44;4861162;29;20200;-84
2022/10/27 00:21:11;;;;;;;11.30;5.13;;;;;;;12.11;100.00;96367.19;4848109;29;20217;-83
2022/10/27 00:23:37;;;;;;;10.20;5.47;;;;;;;12.04;100.00;96372.09;4840542;29;20224;-82
2022/10/27 00:26:03;;;;;;;9.43;4.97;;;;;;;12.02;100.00;96374.03;4854414;29;20196;-81
2022/10/27 00:28:29;;;;;;;11.10;5.23;;;;;;;11.98;100.00;96377.84;4861618;29;20205;-83
2022/10/27 00:31:06;;;;;;;7.77;4.87;;;;;;;11.94;100.00;96373.88;4877668;29;20287;-83
2022/10/27 00:33:31;;;;;;;11.13;5.97;;;;;;;11.87;100.00;96377.97;4853545;29;20228;-84
2022/10/27 00:36:09;;;;;;;9.93;5.73;;;;;;;11.83;100.00;96380.00;4856867;29;20592;-84
2022/10/27 00:38:34;;;;;;;11.27;5.57;;;;;;;11.80;100.00;96380.28;4861646;29;20188;-83
2022/10/27 00:41:01;;;;;;;12.77;5.73;;;;;;;11.79;100.00;96378.59;4852321;29;20220;-83
2022/10/27 00:43:29;;;;;;;7.73;4.27;;;;;;;11.76;100.00;96378.06;4853821;29;20375;-83
2022/10/27 00:45:58;;;;;;;15.60;5.07;;;;;;;11.73;100.00;96375.72;4860945;29;20636;-83
2022/10/27 00:48:25;;;;;;;10.77;4.60;;;;;;;11.73;100.00;96376.53;4876861;29;20205;-83
2022/10/27 00:50:50;;;;;;;11.43;4.67;;;;;;;11.80;100.00;96376.84;4845586;29;20249;-83
2022/10/27 00:53:16;;;;;;;9.27;5.10;;;;;;;11.84;100.00;96370.44;4856092;29;20192;-83
2022/10/27 00:55:41;;;;;;;11.27;4.70;;;;;;;11.83;100.00;96373.97;4860893;29;20204;-84
2022/10/27 00:58:09;;;;;;;11.97;5.00;;;;;;;11.78;100.00;96379.56;4861146;29;20312;-84
2022/10/27 01:00:36;;;;;;;9.57;5.03;;;;;;;11.75;100.00;96371.19;4856673;29;20208;-83
2022/10/27 01:03:02;;;;;;;8.70;5.37;;;;;;;11.73;100.00;96375.72;4851157;29;20307;-83
2022/10/27 01:05:27;;;;;;;8.23;4.90;;;;;;;11.77;100.00;96372.72;4855370;29;20224;-84
2022/10/27 01:08:04;;;;;;;10.73;5.10;;;;;;;11.80;100.00;96363.84;4855744;29;20200;-85
2022/10/27 01:10:29;;;;;;;11.80;4.93;;;;;;;11.78;100.00;96366.56;4855079;29;20263;-82
2022/10/27 01:12:55;;;;;;;10.90;4.97;;;;;;;11.74;100.00;96365.16;4842249;29;20189;-83
2022/10/27 01:15:32;;;;;;;13.93;4.93;;;;;;;11.75;100.00;96366.84;4848579;29;20197;-83
2022/10/27 01:18:06;;;;;;;11.33;4.40;;;;;;;11.72;100.00;96367.09;4862454;29;20196;-82
2022/10/27 01:20:50;;;;;;;8.57;5.70;;;;;;;11.86;100.00;96373.72;4852138;29;20216;-82
2022/10/27 01:23:37;;;;;;;15.40;5.80;;;;;;;12.03;100.00;96370.47;4856978;29;20208;-84
2022/10/27 01:26:17;;;;;;;11.67;5.67;;;;;;;12.05;100.00;96362.50;4845218;29;20193;-83
2022/10/27 01:28:42;;;;;;;13.73;5.70;;;;;;;12.13;100.00;96363.47;4860424;29;20822;-83
2022/10/27 01:31:19;;;;;;;13.90;5.93;;;;;;;12.31;100.00;96365.38;4876273;29;20227;-83
2022/10/27 01:33:49;;;;;;;13.47;6.10;;;;;;;12.47;100.00;96363.03;4843566;29;20180;-82
2022/10/27 01:36:32;;;;;;;11.67;5.33;;;;;;;12.48;100.00;96360.28;4860021;29;20581;-83
2022/10/27 01:39:03;;;;;;;14.37;5.67;;;;;;;12.52;100.00;96358.22;4850810;29;20192;-82
2022/10/27 01:41:39;;;;;;;12.60;5.60;;;;;;;12.48;100.00;96360.28;4854936;29;20263;-82
2022/10/27 01:44:10;;;;;;;12.87;5.40;;;;;;;12.50;100.00;96352.31;4844076;29;20711;-83
2022/10/27 01:46:35;;;;;;;8.17;5.00;;;;;;;12.48;100.00;96351.66;4856585;29;20224;-84
2022/10/27 01:49:04;;;;;;;12.50;6.10;;;;;;;12.46;100.00;96357.00;4834881;29;20285;-83
2022/10/27 01:51:30;;;;;;;14.33;5.73;;;;;;;12.42;100.00;96347.00;4841997;29;20221;-84
2022/10/27 01:53:56;;;;;;;11.33;5.17;;;;;;;12.39;100.00;96350.69;4860895;29;20192;-84
2022/10/27 01:56:36;;;;;;;13.77;5.90;;;;;;;12.41;100.00;96345.34;4866501;29;20253;-83
2022/10/27 01:59:08;;;;;;;8.97;5.37;;;;;;;12.41;100.00;96343.56;4858745;29;20240;-83
2022/10/27 02:01:45;;;;;;;12.73;5.93;;;;;;;12.43;100.00;96346.84;4859537;29;20272;-84
2022/10/27 02:04:14;;;;;;;11.90;5.60;;;;;;;12.42;100.00;96352.19;4858387;29;20248;-84
2022/10/27 02:06:55;;;;;;;12.80;5.13;;;;;;;12.50;100.00;96352.31;4860958;29;20598;-84
2022/10/27 02:09:42;;;;;;;12.03;5.13;;;;;;;12.45;100.00;96355.34;4859790;29;20226;-83
2022/10/27 02:12:14;;;;;;;13.83;4.90;;;;;;;12.48;100.00;96355.06;4861534;29;20197;-83
2022/10/27 02:14:42;;;;;;;8.37;4.83;;;;;;;12.54;100.00;96364.09;4835598;29;20205;-83
2022/10/27 02:17:09;;;;;;;13.07;5.40;;;;;;;12.51;100.00;96353.97;4861453;29;20200;-84
2022/10/27 02:19:36;;;;;;;8.70;5.37;;;;;;;12.53;100.00;96352.03;4859857;29;20311;-83
2022/10/27 02:22:02;;;;;;;12.93;5.60;;;;;;;12.57;100.00;96353.41;4859798;29;20239;-83
2022/10/27 02:24:28;;;;;;;11.83;4.80;;;;;;;12.58;100.00;96347.25;4837826;29;20220;-83
2022/10/27 02:27:00;;;;;;;9.53;4.33;;;;;;;12.65;100.00;96348.31;4850662;29;20280;-83
2022/10/27 02:29:37;;;;;;;9.03;5.47;;;;;;;12.65;100.00;96337.09;4853806;29;20223;-83
2022/10/27 02:32:06;;;;;;;11.63;5.67;;;;;;;12.59;100.00;96335.84;4848566;29;20769;-83
2022/10/27 02:34:32;;;;;;;9.30;5.00;;;;;;;12.65;100.00;96332.69;4859462;29;20200;-82
2022/10/27 02:36:57;;;;;;;10.27;4.60;;;;;;;12.65;100.00;96340.50;4851452;29;20223;-84
2022/10/27 02:39:22;;;;;;;10.07;5.23;;;;;;;12.66;100.00;96347.38;4852549;29;20701;-83
2022/10/27 02:41:48;;;;;;;10.73;4.93;;;;;;;12.63;100.00;96346.81;4859167;29;20196;-83
2022/10/27 02:44:13;;;;;;;13.13;5.17;;;;;;;12.62;100.00;96348.59;4850494;29;20193;-83
2022/10/27 02:46:38;;;;;;;11.27;5.00;;;;;;;12.59;100.00;96351.50;4854269;29;20200;-84
2022/10/27 02:49:04;;;;;;;16.00;5.70;;;;;;;12.61;100.00;96343.53;4845856;29;20287;-83
2022/10/27 02:51:29;;;;;;;14.03;6.00;;;;;;;12.65;100.00;96347.50;4872356;29;20252;-84
2022/10/27 02:53:54;;;;;;;12.03;5.50;;;;;;;12.71;100.00;96347.75;4868502;29;20658;-84
2022/10/27 02:56:19;;;;;;;12.37;5.67;;;;;;;12.74;100.00;96342.28;4859258;29;20195;-84
2022/10/27 02:58:45;;;;;;;13.67;5.60;;;;;;;12.71;100.00;96342.53;4871807;29;20737;-84
2022/10/27 03:01:10;;;;;;;12.57;6.97;;;;;;;12.78;100.00;96345.41;4862682;29;20220;-84
2022/10/27 03:03:35;;;;;;;14.83;6.10;;;;;;;12.77;100.00;96343.75;4859370;29;20227;-84
2022/10/27 03:06:01;;;;;;;11.70;6.33;;;;;;;12.76;100.00;96337.72;4859149;29;20216;-83
2022/10/27 03:08:26;;;;;;;10.70;5.77;;;;;;;12.81;100.00;96349.50;4863186;29;20204;-83
2022/10/27 03:10:51;;;;;;;13.93;6.03;;;;;;;12.85;100.00;96341.28;4852724;29;20208;-84
2022/10/27 03:13:16;;;;;;;11.77;6.03;;;;;;;12.84;100.00;96341.41;4862965;29;20188;-84
2022/10/27 03:15:45;;;;;;;9.10;5.37;;;;;;;12.85;100.00;96345.66;4850755;29;20185;-84
2022/10/27 03:18:10;;;;;;;12.00;5.50;;;;;;;12.90;100.00;96338.25;4858842;29;20192;-84
2022/10/27 03:20:39;;;;;;;9.40;5.23;;;;;;;12.87;100.00;96347.16;4846589;29;20212;-83
2022/10/27 03:23:04;;;;;;;10.37;6.03;;;;;;;12.75;100.00;96343.91;4861755;29;20638;-84
2022/10/27 03:25:29;;;;;;;11.17;5.00;;;;;;;12.64;100.00;96346.69;4876669;29;20248;-84
2022/10/27 03:27:55;;;;;;;10.37;5.23;;;;;;;12.59;100.00;96341.06;4854471;29;20192;-84
2022/10/27 03:30:20;;;;;;;8.60;4.97;;;;;;;12.51;100.00;96348.75;4860828;29;20213;-84
2022/10/27 03:32:49;;;;;;;14.47;6.47;;;;;;;12.49;100.00;96353.28;4861340;29;20200;-83
2022/10/27 03:35:16;;;;;;;13.00;5.40;;;;;;;12.46;100.00;96343.16;4859735;29;20204;-84
2022/10/27 03:37:41;;;;;;;13.27;6.20;;;;;;;12.51;100.00;96348.75;4860360;29;20750;-83
2022/10/27 03:40:07;;;;;;;13.30;5.83;;;;;;;12.57;100.00;96345.59;4852554;29;20223;-83
2022/10/27 03:42:33;;;;;;;15.40;7.23;;;;;;;12.55;100.00;96346.72;4860041;29;20208;-84
2022/10/27 03:44:58;;;;;;;11.80;6.37;;;;;;;12.59;100.00;96354.09;4855206;29;20203;-83
2022/10/27 03:47:23;;;;;;;15.77;6.23;;;;;;;12.61;100.00;96354.75;4864255;29;20333;-84
2022/10/27 03:49:49;;;;;;;16.30;7.03;;;;;;;12.62;100.00;96352.97;4863841;29;20212;-83
2022/10/27 03:52:14;;;;;;;11.40;6.33;;;;;;;12.69;100.00;96347.06;4859046;29;20188;-83
2022/10/27 03:54:39;;;;;;;11.50;6.30;;;;;;;12.75;100.00;96345.69;4863320;29;20214;-82
2022/10/27 03:57:05;;;;;;;14.23;7.03;;;;;;;12.77;100.00;96347.19;4854570;29;20568;-84
2022/10/27 03:59:30;;;;;;;12.50;6.60;;;;;;;12.83;100.00;96352.81;4863544;29;20235;-83
2022/10/27 04:01:55;;;;;;;11.27;6.53;;;;;;;12.89;100.00;96353.03;4861486;29;20185;-83
2022/10/27 04:04:20;;;;;;;16.57;7.47;;;;;;;12.90;100.00;96364.31;4857571;29;20581;-84
2022/10/27 04:06:46;;;;;;;14.00;7.60;;;;;;;12.91;100.00;96355.53;4862914;29;20200;-83
2022/10/27 04:09:11;;;;;;;15.40;6.83;;;;;;;12.92;100.00;96363.22;4863151;29;20732;-83
2022/10/27 04:11:36;;;;;;;13.17;7.17;;;;;;;12.96;100.00;96358.50;4862581;29;20205;-84
2022/10/27 04:14:01;;;;;;;10.17;6.67;;;;;;;12.96;100.00;96361.94;4864168;29;20191;-83
2022/10/27 04:16:27;;;;;;;19.67;7.07;;;;;;;13.00;100.00;96365.09;4854268;29;20602;-83
2022/10/27 04:18:53;;;;;;;16.93;7.43;;;;;;;12.97;100.00;96354.94;4861970;29;20200;-83
2022/10/27 04:21:19;;;;;;;13.73;6.43;;;;;;;12.94;100.00;96355.25;4857156;29;20196;-83
2022/10/27 04:23:44;;;;;;;13.63;6.70;;;;;;;12.92;100.00;96358.00;4859858;29;20213;-83
2022/10/27 04:26:11;;;;;;;13.20;6.60;;;;;;;13.01;100.00;96351.09;4860086;29;20188;-83
2022/10/27 04:28:36;;;;;;;13.70;6.73;;;;;;;13.02;100.00;96358.78;4856166;29;20200;-82
2022/10/27 04:31:01;;;;;;;12.47;6.57;;;;;;;12.97;100.00;96353.16;4854125;29;20209;-83
2022/10/27 04:33:26;;;;;;;11.60;6.40;;;;;;;12.97;100.00;96370.59;4861017;29;20192;-82
2022/10/27 04:35:52;;;;;;;15.33;6.30;;;;;;;12.96;100.00;96358.50;4867648;29;20692;-84
2022/10/27 04:38:17;;;;;;;13.50;6.50;;;;;;;12.97;100.00;96360.16;4863420;29;20221;-84
2022/10/27 04:40:42;;;;;;;16.93;6.70;;;;;;;12.93;100.00;96358.81;4844448;29;20316;-84
2022/10/27 04:43:08;;;;;;;13.67;6.87;;;;;;;12.91;100.00;96361.56;4848919;29;20213;-85
2022/10/27 04:45:34;;;;;;;14.03;6.73;;;;;;;12.90;100.00;96361.72;4857685;29;20188;-84
2022/10/27 04:47:59;;;;;;;13.27;6.57;;;;;;;12.95;100.00;96356.88;4852815;29;20196;-84
2022/10/27 04:50:25;;;;;;;10.77;5.70;;;;;;;13.03;100.00;96363.03;4859453;29;20214;-84
2022/10/27 04:53:01;;;;;;;16.27;6.67;;;;;;;12.98;100.00;96352.19;4844339;29;20189;-83
2022/10/27 04:55:28;;;;;;;10.73;6.10;;;;;;;12.99;100.00;96359.06;4853048;29;20699;-84
2022/10/27 04:57:53;;;;;;;13.73;6.67;;;;;;;12.96;100.00;96356.72;4841709;29;20272;-83
2022/10/27 05:00:18;;;;;;;14.60;6.47;;;;;;;12.97;100.00;96355.75;4857734;29;20285;-84
2022/10/27 05:02:44;;;;;;;19.97;7.30;;;;;;;12.95;100.00;96352.47;4867125;29;20629;-80
2022/10/27 05:05:38;;;;;;;10.80;6.17;;;;;;;12.95;100.00;96362.91;4884772;29;20594;-85
2022/10/27 05:08:04;;;;;;;11.43;5.97;;;;;;;12.89;100.00;96352.22;4900847;29;20199;-84
2022/10/27 05:10:30;;;;;;;14.23;6.33;;;;;;;12.87;100.00;96343.72;4875655;29;20209;-86
2022/10/27 05:12:56;;;;;;;16.33;6.23;;;;;;;12.90;100.00;96351.28;4881356;29;20200;-86
2022/10/27 05:15:21;;;;;;;10.40;6.17;;;;;;;12.85;100.00;96341.28;4874983;29;20192;-84
2022/10/27 05:17:47;;;;;;;13.20;6.03;;;;;;;12.87;100.00;96336.72;4846599;29;20584;-84
2022/10/27 05:20:12;;;;;;;10.33;6.13;;;;;;;12.84;100.00;96337.03;4859409;29;20224;-84
2022/10/27 05:22:38;;;;;;;11.87;6.63;;;;;;;12.77;100.00;96335.94;4882298;29;20228;-86
2022/10/27 05:25:04;;;;;;;11.63;6.10;;;;;;;12.77;100.00;96333.34;4861810;29;20200;-84
2022/10/27 05:27:31;;;;;;;15.53;6.13;;;;;;;12.73;100.00;96339.81;4860242;29;20197;-84
2022/10/27 05:29:56;;;;;;;11.00;6.13;;;;;;;12.77;100.00;96334.16;4860907;29;20251;-84
2022/10/27 05:32:21;;;;;;;13.97;6.23;;;;;;;12.70;100.00;96329.66;4850979;29;20242;-84
2022/10/27 05:34:47;;;;;;;12.00;6.27;;;;;;;12.70;100.00;96335.69;4847949;29;20201;-84
2022/10/27 05:37:12;;;;;;;11.53;6.27;;;;;;;12.67;100.00;96335.97;4852987;29;20195;-84
2022/10/27 05:39:37;;;;;;;16.20;6.43;;;;;;;12.71;100.00;96326.06;4853259;29;20225;-83
2022/10/27 05:42:02;;;;;;;11.93;5.87;;;;;;;12.79;100.00;96328.78;4853603;29;20196;-84
2022/10/27 05:44:28;;;;;;;14.73;6.90;;;;;;;12.70;100.00;96321.84;4859832;29;21108;-83
2022/10/27 05:46:54;;;;;;;9.20;5.73;;;;;;;12.75;100.00;96325.66;4859685;29;20205;-83
2022/10/27 05:49:19;;;;;;;10.73;5.60;;;;;;;12.77;100.00;96322.91;4840725;29;20701;-83
2022/10/27 05:51:45;;;;;;;9.87;5.67;;;;;;;12.83;100.00;96324.13;4852958;29;20224;-85
2022/10/27 05:54:10;;;;;;;10.77;6.00;;;;;;;12.85;100.00;96330.03;4852008;29;20274;-86
2022/10/27 05:56:35;;;;;;;7.90;5.10;;;;;;;12.83;100.00;96329.34;4860531;29;20189;-85
2022/10/27 05:59:01;;;;;;;11.30;6.23;;;;;;;12.86;100.00;96334.28;4861705;29;20661;-85
2022/10/27 06:01:26;;;;;;;10.90;4.87;;;;;;;12.84;100.00;96334.41;4891215;29;20193;-85
2022/10/27 06:03:51;;;;;;;11.67;5.03;;;;;;;12.88;100.00;96340.16;4846744;29;20697;-85
2022/10/27 06:06:17;;;;;;;11.63;5.63;;;;;;;12.86;100.00;96340.31;4860458;29;20215;-86
2022/10/27 06:08:42;;;;;;;10.40;4.80;;;;;;;12.89;100.00;96347.00;4858608;29;20345;-87
2022/10/27 06:11:07;;;;;;;13.77;5.00;;;;;;;12.91;100.00;96339.91;4860578;29;20248;-86
2022/10/27 06:13:33;;;;;;;10.67;4.90;;;;;;;12.92;100.00;96346.75;4863338;29;20280;-86
2022/10/27 06:15:58;;;;;;;12.80;4.93;;;;;;;12.90;100.00;96346.88;4862531;29;20202;-86
2022/10/27 06:18:23;;;;;;;10.97;5.30;;;;;;;12.96;100.00;96342.88;4846174;29;20272;-80
2022/10/27 06:20:49;;;;;;;10.27;4.50;;;;;;;12.96;100.00;96342.88;4859715;29;20215;-82
2022/10/27 06:23:14;;;;;;;10.33;4.53;;;;;;;12.97;100.00;96350.53;4860908;29;20232;-85
2022/10/27 06:25:39;;;;;;;7.13;4.03;;;;;;;13.00;100.00;96347.69;4837315;29;20216;-85
2022/10/27 06:28:05;;;;;;;11.20;4.20;;;;;;;12.99;99.78;96335.59;4845201;29;20697;-85
2022/10/27 06:30:30;;;;;;;7.30;3.80;;;;;;;13.08;98.96;96339.16;4844573;29;20597;-86
2022/10/27 06:32:55;;;;;;;8.97;3.80;;;;;;;13.03;98.54;96342.16;4851423;29;20195;-84
2022/10/27 06:35:21;;;;;;;10.80;4.07;;;;;;;13.12;98.00;96337.88;4858955;29;20199;-85
2022/10/27 06:37:46;;;;;;;6.43;3.43;;;;;;;13.17;96.56;96340.88;4843308;29;20260;-85
2022/10/27 06:40:15;;;;;;;10.90;3.80;;;;;;;13.23;95.79;96350.75;4849474;29;20204;-86
2022/10/27 06:42:40;;;;;;;7.47;3.23;;;;;;;13.36;94.48;96344.41;4855802;29;20296;-86
2022/10/27 06:45:07;;;;;;;7.03;3.20;;;;;;;13.39;93.89;96349.31;4855851;29;20684;-88
2022/10/27 06:47:32;;;;;;;6.10;3.50;;;;;;;13.42;93.81;96343.78;4860395;29;20200;-86
2022/10/27 06:49:58;;;;;;;8.17;3.27;;;;;;;13.47;93.11;96346.81;4860431;29;20693;-86
2022/10/27 06:52:24;;;;;;;7.10;3.40;;;;;;;13.46;93.08;96350.38;4845710;29;20622;-86
2022/10/27 06:54:49;;;;;;;9.60;3.77;;;;;;;13.48;93.08;96357.09;4857708;29;20220;-86
2022/10/27 06:57:14;;;;;;;5.77;3.50;;;;;;;13.60;91.51;96360.31;4861510;29;20272;-85
2022/10/27 06:59:40;;;;;;;7.43;3.13;;;;;;;13.59;92.30;96367.31;4847028;29;20593;-86
2022/10/27 07:02:05;;;;;;;7.50;3.40;;;;;;;13.63;91.41;96362.66;4844526;29;20207;-85
2022/10/27 07:04:31;;;;;;;8.77;3.17;;;;;;;13.69;91.48;96372.47;4860387;29;20201;-85
2022/10/27 07:06:56;;;;;;;6.27;3.17;;;;;;;13.67;91.04;96366.59;4874668;29;20261;-85
2022/10/27 07:09:21;;;;;;;6.47;3.80;;;;;;;13.72;90.78;96366.97;4850965;29;20381;-85
2022/10/27 07:11:47;;;;;;;8.17;3.33;;;;;;;13.80;90.21;96366.25;4844218;29;20197;-86
2022/10/27 07:14:12;;;;;;;6.03;3.73;;;;;;;13.90;89.97;96372.22;4855688;29;20196;-86
2022/10/27 07:16:37;;;;;;;7.83;3.27;;;;;;;13.93;89.79;96369.31;4854872;29;20201;-86
2022/10/27 07:19:03;;;;;;;6.47;3.97;;;;;;;13.94;89.79;96370.13;4875271;29;20220;-86
2022/10/27 07:21:28;;;;;;;8.07;3.50;;;;;;;13.99;89.07;96368.72;4865354;29;20237;-85
2022/10/27 07:23:53;;;;;;;10.57;4.30;;;;;;;13.98;89.23;96368.88;4858934;29;20612;-86
2022/10/27 07:26:22;;;;;;;7.80;3.90;;;;;;;14.09;88.77;96377.31;4859650;29;20199;-86
2022/10/27 07:28:47;;;;;;;8.50;3.40;;;;;;;14.14;87.34;96369.03;4837958;29;20197;-86
2022/10/27 07:31:12;;;;;;;20.20;14.97;;;;;;;14.24;87.43;96385.44;4844512;29;20224;-86
2022/10/27 07:33:38;;;;;;;9.97;5.97;;;;;;;14.24;86.59;96382.84;4869889;29;20585;-86
2022/10/27 07:36:03;;;;;;;15.70;8.30;;;;;;;14.34;86.33;96393.22;4843693;29;20260;-83
2022/10/27 07:38:28;;;;;;;12.23;8.07;;;;;;;14.39;86.44;96397.00;4858724;29;20265;-84
2022/10/27 07:40:55;;;;;;;13.73;5.55;;;;;;;14.47;85.75;96395.47;4853487;29;20639;-85
2022/10/27 07:43:20;;;;;;;6.73;3.83;;;;;;;14.60;84.66;96403.75;4844833;29;20211;-85
2022/10/27 07:45:45;;;;;;;7.63;3.67;;;;;;;14.60;84.41;96404.56;4859470;29;20575;-85
2022/10/27 07:48:13;;;;;;;7.63;3.78;;;;;;;14.71;82.95;96408.72;4839626;29;20203;-85
2022/10/27 07:50:38;;;;;;;8.47;4.00;;;;;;;14.78;82.39;96404.53;4851823;29;20214;-84
2022/10/27 07:53:04;;;;;;;7.50;3.20;;;;;;;14.78;82.41;96409.75;4866571;29;20192;-85
2022/10/27 07:55:31;;;;;;;5.97;2.67;;;;;;;14.86;81.54;96409.00;4851540;29;20196;-84
2022/10/27 07:58:16;;;;;;;10.35;3.75;;;;;;;15.04;79.67;96406.34;4854715;29;20189;-83
2022/10/27 08:00:45;;;;;;;5.18;2.55;;;;;;;15.08;80.38;96423.34;4862368;29;20693;-86
2022/10/27 08:03:22;;;;;;;7.53;2.55;;;;;;;15.15;79.92;96409.50;4872925;29;20208;-83
2022/10/27 08:05:47;;;;;;;5.27;3.00;;;;;;;15.23;78.92;96411.34;4853622;29;20215;-85
2022/10/27 08:08:14;;;;;;;6.57;3.37;;;;;;;15.29;77.95;96413.34;4858831;29;20205;-84
2022/10/27 08:10:40;;;;;;;7.50;2.92;;;;;;;15.38;76.89;96414.22;4847573;29;20240;-83
2022/10/27 08:13:06;;;;;;;6.32;2.67;;;;;;;15.42;76.99;96416.34;4852746;29;20275;-84
2022/10/27 08:15:32;;;;;;;5.03;3.33;;;;;;;15.56;77.00;96412.34;4845141;29;20275;-83
2022/10/27 08:18:00;;;;;;;6.40;2.42;;;;;;;15.57;76.13;96408.75;4859360;29;20275;-84
2022/10/27 08:20:27;;;;;;;7.07;3.00;;;;;;;15.66;76.16;96413.06;4859549;29;20721;-84
2022/10/27 08:23:00;;;;;;;5.70;2.65;;;;;;;15.71;76.14;96417.81;4865944;29;20219;-84
2022/10/27 08:25:25;;;;;;;5.93;2.70;;;;;;;15.75;75.82;96414.72;4857570;29;20200;-83
2022/10/27 08:27:51;;;;;;;6.55;2.83;;;;;;;15.83;76.14;96419.19;4851223;29;20181;-84
2022/10/27 08:30:16;;;;;;;9.63;2.38;;;;;;;15.83;75.66;96419.19;4857812;29;20227;-85
2022/10/27 08:32:42;;;;;;;8.05;2.67;;;;;;;15.99;75.13;96416.63;4861748;29;20233;-86
2022/10/27 08:35:08;;;;;;;8.68;2.90;;;;;;;16.09;75.33;96427.78;4855555;29;20287;-84
2022/10/27 08:37:33;;;;;;;6.18;2.78;;;;;;;16.08;74.91;96425.31;4862225;29;20192;-84
2022/10/27 08:39:58;;;;;;;9.57;2.40;;;;;;;16.21;73.88;96430.09;4862491;29;20212;-83
2022/10/27 08:42:51;;;;;;;6.88;2.55;;;;;;;16.22;73.12;96434.34;4870405;29;20631;-84
2022/10/27 08:45:25;;;;;;;5.20;2.70;;;;;;;16.34;72.60;96423.41;4861905;29;20227;-84
2022/10/27 08:47:54;;;;;;;6.45;2.72;;;;;;;16.39;72.21;96433.38;4859334;29;20684;-85
2022/10/27 08:50:22;;;;;;;7.72;3.10;;;;;;;16.38;72.05;96423.88;4853855;29;20211;-84
2022/10/27 08:52:50;;;;;;;8.32;2.83;;;;;;;16.48;70.68;96428.97;4859797;29;20188;-84
2022/10/27 08:55:24;;;;;;;6.00;2.35;;;;;;;16.56;69.76;96424.56;4862649;29;20189;-84
2022/10/27 08:58:00;;;;;;;7.63;2.70;;;;;;;16.67;70.45;96423.41;4843137;29;20260;-84
2022/10/27 09:00:28;;;;;;;6.00;2.50;;;;;;;16.75;71.09;96427.88;4877403;29;20216;-85
2022/10/27 09:03:39;;;;;;;7.30;2.70;;;;;;;16.89;69.14;96429.84;4846202;29;20232;-84
2022/10/27 09:06:15;;;;;;;8.43;2.95;;;;;;;16.97;69.79;96435.91;4830841;29;20209;-84
2022/10/27 09:08:52;;;;;;;8.73;2.67;;;;;;;17.00;68.69;96432.13;4859645;29;20189;-84
2022/10/27 09:11:41;;;;;;;6.70;2.83;;;;;;;17.11;68.71;96439.63;4844549;29;20248;-84
2022/10/27 09:14:15;;;;;;;6.47;2.67;;;;;;;17.20;68.28;96428.13;4855488;29;20185;-84
2022/10/27 09:16:50;;;;;;;5.85;3.55;;;;;;;17.21;67.10;96437.66;4859234;29;20716;-85
2022/10/27 09:19:21;;;;;;;5.30;2.53;;;;;;;17.34;67.69;96434.50;4861140;29;20274;-85
2022/10/27 09:21:46;;;;;;;7.20;3.10;;;;;;;17.34;66.73;96433.69;4863619;29;20188;-85
2022/10/27 09:24:13;;;;;;;6.47;2.90;;;;;;;17.38;65.82;96437.63;4865126;29;20272;-84
2022/10/27 09:26:39;;;;;;;7.75;2.40;;;;;;;17.47;65.18;96433.97;4847787;29;20199;-85
2022/10/27 09:29:13;;;;;;;7.47;2.97;;;;;;;17.49;64.87;96429.38;4840978;29;20185;-85
2022/10/27 09:31:42;;;;;;;5.78;2.30;;;;;;;17.56;65.33;96427.72;4861414;29;20213;-86
2022/10/27 09:34:24;;;;;;;9.52;3.03;;;;;;;17.69;64.04;96429.81;4854175;29;20668;-86
2022/10/27 09:36:49;;;;;;;6.30;2.70;;;;;;;17.72;63.94;96425.06;4858975;29;20193;-85
2022/10/27 09:39:15;;;;;;;5.25;2.20;;;;;;;17.82;64.36;96428.28;4861610;29;20206;-85
2022/10/27 09:41:40;;;;;;;7.40;2.53;;;;;;;17.99;64.06;96428.22;4860376;29;20208;-85
2022/10/27 09:44:17;;;;;;;5.00;2.63;;;;;;;18.01;63.41;96424.44;4848311;29;20208;-86
2022/10/27 09:46:43;;;;;;;5.30;2.30;;;;;;;18.03;63.22;96432.16;4860857;29;20266;-85
2022/10/27 09:49:08;;;;;;;10.90;2.35;;;;;;;18.18;62.69;96426.97;4860938;29;20189;-84
2022/10/27 09:51:42;;;;;;;7.07;2.10;;;;;;;18.17;62.70;96422.69;4855750;29;20185;-86
2022/10/27 09:54:27;;;;;;;8.00;3.42;;;;;;;18.31;62.54;96424.59;4856044;29;20681;-83
2022/10/27 09:56:53;;;;;;;7.57;2.20;;;;;;;18.33;62.62;96427.88;4876335;29;20679;-84
2022/10/27 09:59:22;;;;;;;9.13;2.30;;;;;;;18.38;62.61;96423.72;4861809;29;20208;-84
2022/10/27 10:01:55;;;;;;;5.05;2.67;;;;;;;18.28;62.36;96419.66;4869592;29;20190;-83
2022/10/27 10:04:34;;;;;;;6.53;2.42;;;;;;;18.40;61.79;96420.94;4849808;29;20633;-84
2022/10/27 10:07:05;;;;;;;5.00;2.30;;;;;;;18.29;61.63;96416.91;4853009;29;20299;-84
2022/10/27 10:09:32;;;;;;;4.82;2.22;;;;;;;18.29;61.40;96421.34;4851741;29;20217;-85
2022/10/27 10:12:16;;;;;;;7.63;2.13;;;;;;;18.40;61.94;96423.56;4858935;29;20259;-85
2022/10/27 10:14:42;;;;;;;8.02;2.25;;;;;;;18.50;62.05;96423.31;4872847;29;20783;-85
2022/10/27 10:17:19;;;;;;;6.60;2.35;;;;;;;18.52;61.59;96421.31;4848738;29;20253;-83
2022/10/27 10:19:45;;;;;;;4.03;2.00;;;;;;;18.46;61.19;96427.28;4840340;29;20244;-83
2022/10/27 10:22:28;;;;;;;4.72;2.25;;;;;;;18.67;60.80;96416.97;4852758;29;20207;-82
2022/10/27 10:24:54;;;;;;;8.30;2.15;;;;;;;18.61;61.30;96415.00;4844297;29;20692;-84
2022/10/27 10:27:40;;;;;;;5.30;2.10;;;;;;;18.71;60.70;96418.25;4856513;29;20200;-84
2022/10/27 10:30:05;;;;;;;7.40;2.70;;;;;;;18.67;61.67;96416.97;4859093;29;20220;-84
2022/10/27 10:32:34;;;;;;;5.88;2.90;;;;;;;18.74;60.70;96415.28;4858535;29;20236;-83
2022/10/27 10:35:00;;;;;;;4.88;2.30;;;;;;;18.66;61.16;96415.34;4858813;29;20219;-84
2022/10/27 10:37:32;;;;;;;6.65;2.40;;;;;;;18.83;62.31;96416.03;4853567;29;20265;-84
2022/10/27 10:40:12;;;;;;;7.70;2.47;;;;;;;18.80;61.79;96409.28;4858471;29;20212;-83
2022/10/27 10:42:38;;;;;;;5.07;2.15;;;;;;;19.00;61.74;96414.88;4859456;29;20212;-84
2022/10/27 10:45:29;;;;;;;6.55;2.35;;;;;;;19.04;61.03;96403.00;4859973;29;20196;-83
2022/10/27 10:48:05;;;;;;;10.43;2.88;;;;;;;19.05;61.47;96407.25;4845662;29;20185;-84
2022/10/27 10:50:31;;;;;;;6.35;2.17;;;;;;;19.08;61.39;96411.34;4842873;29;20212;-84
2022/10/27 10:52:58;;;;;;;5.18;2.63;;;;;;;19.17;61.23;96408.47;4873576;29;20181;-84
2022/10/27 10:55:34;;;;;;;8.68;2.55;;;;;;;19.24;61.46;96405.91;4855309;29;20307;-84
2022/10/27 10:58:00;;;;;;;5.97;2.20;;;;;;;19.21;61.51;96407.09;4852955;29;20224;-84
2022/10/27 11:00:26;;;;;;;5.50;2.28;;;;;;;19.22;61.64;96407.91;4855391;29;20212;-86
2022/10/27 11:03:00;;;;;;;5.82;2.72;;;;;;;19.33;61.88;96399.56;4858611;29;20200;-84
2022/10/27 11:05:31;;;;;;;6.65;2.42;;;;;;;19.42;61.73;96393.19;4847815;29;20233;-83
2022/10/27 11:07:56;;;;;;;5.63;2.80;;;;;;;19.53;61.72;96387.50;4849173;29;20203;-84
2022/10/27 11:41:27;;;;;;;3.88;2.60;;;;;;;20.16;61.08;96373.84;4804304;29;20233;-82
2022/10/27 12:37:01;;;;;;;8.68;2.50;;;;;;;20.80;58.58;96336.91;5748000;23;20241;-83
2022/10/27 12:44:16;;;;;;;;;;;;;;;;;;;;;
2022/10/27 12:50:50;;;;;;;8.15;2.60;;;;;;;20.98;59.22;96336.41;4782060;30;20832;-87
2022/10/27 12:53:47;;;;;;;10.63;2.65;;;;;;;20.94;58.74;96338.66;4767306;30;20199;-87
2022/10/27 13:00:07;;;;;;;;;;;;;;;;;;;;;
2022/10/27 13:02:50;;;;;;;6.18;2.70;;;;;;;21.00;58.36;96329.13;4678586;30;20236;-83
2022/10/27 13:05:37;;;;;;;11.45;2.75;;;;;;;21.04;58.79;96330.38;4678776;30;20203;-84
2022/10/27 13:08:13;;;;;;;9.30;2.90;;;;;;;21.03;58.82;96324.28;4679580;30;20215;-84
2022/10/27 13:10:53;;;;;;;5.97;2.60;;;;;;;21.09;58.81;96318.19;4669379;30;20257;-81